createdAt,value
2017-10-25T05:43:02.088Z,100.00
2017-10-25T05:44:08.206Z,100.00
2017-10-25T05:45:14.332Z,100.00
2017-10-25T05:46:20.437Z,100.00
2017-10-25T05:47:27.820Z,100.00
2017-10-25T05:48:34.371Z,100.00
2017-10-25T05:49:40.504Z,100.00
2017-10-25T05:50:46.224Z,100.00
2017-10-25T05:51:52.630Z,100.00
2017-10-25T05:52:58.568Z,100.00
2017-10-25T05:54:04.748Z,100.00
2017-10-25T05:55:10.876Z,100.00
2017-10-25T05:56:17.051Z,100.00
2017-10-25T05:57:23.014Z,100.00
2017-10-25T05:58:29.220Z,100.00
2017-10-25T16:23:20.958Z,72.11
2017-10-25T16:24:27.453Z,71.63
2017-10-25T16:25:33.520Z,72.03
2017-10-25T16:26:40.753Z,72.93
2017-10-25T16:27:49.731Z,73.27
2017-10-25T16:28:56.362Z,73.91
2017-10-25T16:30:02.483Z,74.57
2017-10-25T16:31:08.928Z,75.16
2017-10-25T16:32:15.573Z,75.35
2017-10-25T16:33:22.146Z,75.68
2017-10-25T16:34:28.708Z,76.19
2017-10-25T16:35:35.437Z,76.53
2017-10-25T16:36:42.484Z,76.96
2017-10-25T16:37:48.602Z,77.02
2017-10-25T16:38:55.498Z,76.94
2017-10-25T16:40:01.954Z,77.06
2017-10-25T16:41:08.017Z,77.13
2017-10-25T16:42:14.203Z,77.50
2017-10-25T16:43:20.103Z,77.41
2017-10-25T16:44:26.205Z,77.01
2017-10-25T16:45:32.056Z,77.11
2017-10-25T16:46:38.298Z,77.08
2017-10-25T16:47:44.142Z,77.12
2017-10-25T16:48:50.224Z,76.82
2017-10-25T16:49:56.336Z,76.48
2017-10-25T16:51:02.432Z,76.58
2017-10-25T16:52:08.498Z,76.55
2017-10-25T16:53:14.603Z,76.36
2017-10-25T16:54:20.710Z,75.77
2017-10-25T16:55:26.761Z,75.75
2017-10-25T16:56:32.805Z,75.85
2017-10-25T16:57:38.880Z,76.27
2017-10-25T16:58:44.969Z,76.24
2017-10-25T16:59:51.018Z,76.36
2017-10-25T17:00:57.132Z,76.03
2017-10-25T17:02:03.159Z,75.99
2017-10-25T17:03:09.240Z,76.38
2017-10-25T17:04:15.241Z,76.55
2017-10-25T17:05:21.634Z,76.58
2017-10-25T17:06:28.431Z,76.65
2017-10-25T17:07:34.689Z,76.67
2017-10-25T17:08:40.822Z,76.53
2017-10-25T17:09:46.910Z,76.73
2017-10-25T17:10:53.507Z,76.74
2017-10-25T17:11:59.351Z,76.69
2017-10-25T17:13:05.434Z,76.55
2017-10-25T17:14:11.525Z,76.78
2017-10-25T17:15:17.598Z,76.81
2017-10-25T17:16:23.681Z,77.01
2017-10-25T17:17:29.870Z,77.06
2017-10-25T17:18:36.181Z,76.91
2017-10-25T17:19:42.233Z,76.90
2017-10-25T17:20:48.397Z,76.67
2017-10-25T17:21:54.366Z,76.74
2017-10-25T17:23:00.456Z,76.25
2017-10-25T17:24:06.752Z,76.25
2017-10-25T17:25:13.073Z,76.56
2017-10-25T17:26:19.513Z,76.51
2017-10-25T17:27:25.891Z,76.40
2017-10-25T17:28:35.370Z,76.69
2017-10-25T17:29:41.452Z,75.94
2017-10-25T17:30:47.544Z,75.91
2017-10-25T17:31:53.600Z,75.37
2017-10-25T17:32:59.497Z,75.44
2017-10-25T17:34:05.663Z,75.46
2017-10-25T17:35:11.771Z,75.24
2017-10-25T17:36:17.825Z,75.06
2017-10-25T17:37:23.889Z,75.22
2017-10-25T17:38:29.953Z,75.12
2017-10-25T17:39:36.012Z,75.00
2017-10-25T17:40:42.458Z,75.22
2017-10-25T17:41:49.476Z,75.10
2017-10-25T17:42:55.813Z,75.25
2017-10-25T17:44:01.951Z,75.50
2017-10-25T17:45:08.049Z,75.34
2017-10-25T17:46:13.773Z,75.23
2017-10-25T17:47:20.208Z,74.99
2017-10-25T17:48:34.463Z,74.78
2017-10-25T17:49:40.647Z,74.70
2017-10-25T17:50:46.704Z,74.56
2017-10-25T17:51:52.744Z,74.61
2017-10-25T17:52:58.814Z,74.97
2017-10-25T17:54:04.863Z,75.20
2017-10-25T17:55:10.905Z,75.11
2017-10-25T17:56:17.025Z,75.18
2017-10-25T17:57:22.914Z,75.28
2017-10-25T17:58:28.970Z,75.49
2017-10-25T17:59:35.027Z,75.40
2017-10-25T18:00:41.095Z,75.60
2017-10-25T18:01:49.320Z,75.59
2017-10-25T18:02:55.482Z,75.32
2017-10-25T18:04:01.535Z,75.31
2017-10-25T18:05:07.619Z,75.55
2017-10-25T18:06:13.693Z,75.68
2017-10-25T18:07:19.744Z,76.12
2017-10-25T18:08:26.357Z,76.20
2017-10-25T18:09:39.967Z,76.17
2017-10-25T18:10:49.325Z,76.56
2017-10-25T18:11:55.422Z,76.73
2017-10-25T18:13:01.466Z,77.12
2017-10-25T18:14:07.910Z,77.38
2017-10-25T18:15:14.234Z,77.29
2017-10-25T18:16:20.313Z,77.38
2017-10-25T18:17:27.036Z,77.53
2017-10-25T18:18:34.028Z,77.72
2017-10-25T18:19:45.482Z,77.88
2017-10-25T18:20:51.914Z,77.79
2017-10-25T18:21:58.245Z,78.11
2017-10-25T18:23:04.686Z,77.89
2017-10-25T18:24:11.407Z,78.07
2017-10-25T18:25:17.739Z,78.30
2017-10-25T18:26:24.218Z,78.53
2017-10-25T18:27:30.686Z,78.61
2017-10-25T18:28:37.279Z,78.84
2017-10-25T18:29:43.619Z,79.17
2017-10-25T18:30:51.007Z,79.42
2017-10-25T18:32:02.248Z,79.24
2017-10-25T18:33:08.940Z,79.40
2017-10-25T18:34:15.320Z,79.90
2017-10-25T18:35:22.395Z,80.09
2017-10-25T18:36:28.383Z,80.00
2017-10-25T18:37:34.882Z,80.36
2017-10-25T18:38:42.000Z,80.37
2017-10-25T18:39:48.663Z,80.50
2017-10-25T18:40:55.467Z,80.68
2017-10-25T18:42:02.204Z,80.54
2017-10-25T18:43:08.404Z,80.91
2017-10-25T18:44:14.765Z,81.04
2017-10-25T18:45:20.999Z,81.19
2017-10-25T18:46:27.117Z,81.36
2017-10-25T18:47:33.268Z,81.76
2017-10-25T18:48:39.887Z,82.16
2017-10-25T18:49:46.424Z,82.23
2017-10-25T18:50:52.874Z,82.33
2017-10-25T18:52:01.025Z,82.51
2017-10-25T18:53:07.904Z,82.74
2017-10-25T18:54:14.978Z,82.80
2017-10-25T18:55:21.378Z,83.39
2017-10-25T18:56:28.025Z,83.53
2017-10-25T18:57:34.523Z,83.70
2017-10-25T18:58:40.716Z,83.89
2017-10-25T18:59:46.805Z,84.01
2017-10-25T19:00:56.582Z,83.97
2017-10-25T19:02:03.619Z,83.99
2017-10-25T19:03:10.902Z,84.17
2017-10-25T19:04:17.155Z,84.22
2017-10-25T19:05:25.529Z,84.18
2017-10-25T19:06:31.834Z,84.13
2017-10-25T19:07:38.573Z,84.26
2017-10-25T19:08:45.193Z,84.68
2017-10-25T19:09:51.379Z,84.70
2017-10-25T19:10:58.530Z,85.06
2017-10-25T19:12:05.553Z,85.58
2017-10-25T19:13:12.853Z,85.73
2017-10-25T19:14:19.418Z,86.17
2017-10-25T19:15:26.555Z,86.41
2017-10-25T19:16:32.885Z,86.61
2017-10-25T19:17:39.622Z,86.81
2017-10-25T19:18:47.339Z,86.73
2017-10-25T19:19:54.163Z,86.72
2017-10-25T19:21:00.934Z,86.62
2017-10-25T19:22:08.035Z,86.96
2017-10-25T19:23:14.531Z,87.00
2017-10-25T19:24:20.775Z,86.71
2017-10-25T19:25:26.506Z,86.81
2017-10-25T19:26:32.540Z,86.67
2017-10-25T19:27:38.625Z,86.93
2017-10-25T19:28:44.669Z,87.09
2017-10-25T19:29:50.621Z,86.75
2017-10-25T19:30:56.733Z,86.81
2017-10-25T19:32:02.794Z,87.21
2017-10-25T19:33:08.837Z,87.35
2017-10-25T19:34:16.360Z,87.74
2017-10-25T19:35:22.502Z,88.09
2017-10-25T19:36:28.420Z,88.08
2017-10-25T19:37:34.936Z,88.31
2017-10-25T19:38:41.037Z,88.42
2017-10-25T19:39:47.114Z,88.30
2017-10-25T19:40:53.232Z,88.26
2017-10-25T19:41:59.302Z,88.18
2017-10-25T19:43:05.390Z,88.12
2017-10-25T19:44:11.458Z,87.89
2017-10-25T19:45:17.596Z,87.68
2017-10-25T19:46:23.703Z,87.79
2017-10-25T19:47:29.936Z,87.75
2017-10-25T19:48:36.078Z,87.49
2017-10-25T19:49:42.259Z,87.63
2017-10-25T19:50:48.310Z,87.70
2017-10-25T19:51:54.414Z,87.71
2017-10-25T19:53:00.501Z,87.91
2017-10-25T19:54:10.565Z,88.01
2017-10-25T19:55:17.266Z,88.15
2017-10-25T19:56:23.403Z,88.32
2017-10-25T19:57:29.508Z,88.31
2017-10-25T19:58:35.622Z,88.21
2017-10-25T19:59:42.662Z,88.24
2017-10-25T20:00:48.776Z,88.15
2017-10-25T20:01:55.021Z,88.05
2017-10-25T20:03:00.892Z,87.82
2017-10-25T20:04:10.352Z,87.53
2017-10-25T20:05:17.427Z,88.09
2017-10-25T20:06:23.556Z,88.30
2017-10-25T20:07:29.618Z,88.33
2017-10-25T20:08:35.753Z,88.03
2017-10-25T20:09:41.915Z,88.08
2017-10-25T20:10:47.998Z,88.06
2017-10-25T20:11:54.185Z,88.30
2017-10-25T20:13:00.251Z,88.34
2017-10-25T20:14:06.372Z,88.51
2017-10-25T20:15:17.773Z,88.82
2017-10-25T20:16:29.445Z,88.69
2017-10-25T20:17:35.332Z,88.77
2017-10-25T20:18:41.420Z,88.52
2017-10-25T20:19:47.526Z,88.36
2017-10-25T20:20:53.235Z,88.25
2017-10-25T20:21:59.357Z,87.81
2017-10-25T20:23:05.438Z,88.15
2017-10-25T20:24:11.532Z,88.14
2017-10-25T20:25:17.613Z,87.98
2017-10-25T20:26:23.730Z,88.23
2017-10-25T20:27:29.803Z,88.37
2017-10-25T20:28:35.986Z,88.41
2017-10-25T20:29:42.126Z,88.78
2017-10-25T20:30:48.214Z,88.78
2017-10-25T20:31:57.806Z,88.56
2017-10-25T20:33:03.534Z,88.29
2017-10-25T20:34:09.394Z,88.07
2017-10-25T20:35:15.445Z,88.73
2017-10-25T20:36:26.116Z,88.56
2017-10-25T20:37:35.003Z,88.48
2017-10-25T20:38:41.300Z,88.78
2017-10-25T20:39:47.362Z,89.06
2017-10-25T20:40:53.467Z,88.76
2017-10-25T20:41:59.577Z,88.63
2017-10-25T20:43:05.673Z,88.68
2017-10-25T20:44:11.790Z,88.97
2017-10-25T20:45:17.987Z,89.05
2017-10-25T20:46:24.144Z,89.02
2017-10-25T20:47:30.266Z,88.85
2017-10-25T20:48:36.429Z,88.82
2017-10-25T20:49:42.516Z,88.54
2017-10-25T20:50:48.566Z,88.78
2017-10-25T20:51:54.843Z,88.76
2017-10-25T20:53:00.968Z,88.55
2017-10-25T20:54:07.043Z,88.42
2017-10-25T20:55:12.948Z,88.27
2017-10-25T20:56:19.058Z,88.25
2017-10-25T20:57:38.203Z,88.73
2017-10-25T20:58:44.302Z,88.58
2017-10-25T20:59:50.393Z,88.63
2017-10-25T21:00:56.525Z,88.89
2017-10-25T21:02:02.609Z,89.07
2017-10-25T21:03:08.743Z,89.15
2017-10-25T21:04:14.812Z,88.94
2017-10-25T21:05:20.883Z,88.68
2017-10-25T21:06:26.993Z,88.84
2017-10-25T21:07:33.096Z,88.45
2017-10-25T21:08:39.224Z,88.75
2017-10-25T21:09:45.328Z,88.89
2017-10-25T21:10:51.515Z,88.75
2017-10-25T21:11:57.641Z,89.28
2017-10-25T21:13:03.735Z,89.48
2017-10-25T21:14:10.406Z,89.79
2017-10-25T21:15:16.492Z,89.86
2017-10-25T21:16:22.647Z,89.74
2017-10-25T21:17:28.807Z,89.65
2017-10-25T21:18:35.708Z,89.70
2017-10-25T21:19:46.229Z,89.89
2017-10-25T21:20:52.295Z,90.16
2017-10-25T21:21:58.351Z,90.44
2017-10-25T21:23:04.485Z,90.77
2017-10-25T21:24:10.617Z,90.64
2017-10-25T21:25:16.702Z,90.75
2017-10-25T21:26:22.829Z,90.91
2017-10-25T21:27:28.977Z,90.77
2017-10-25T21:28:35.033Z,91.09
2017-10-25T21:29:41.182Z,91.44
2017-10-25T21:30:47.291Z,91.24
2017-10-25T21:31:53.477Z,91.11
2017-10-25T21:32:59.401Z,91.66
2017-10-25T21:34:05.501Z,91.51
2017-10-25T21:35:11.610Z,91.58
2017-10-25T21:36:17.349Z,91.68
2017-10-25T21:37:23.399Z,91.63
2017-10-25T21:38:29.552Z,91.69
2017-10-25T21:39:36.840Z,91.71
2017-10-25T21:40:43.265Z,91.89
2017-10-25T21:41:49.340Z,91.80
2017-10-25T21:42:55.505Z,91.71
2017-10-25T21:44:03.939Z,91.95
2017-10-25T21:45:10.005Z,91.79
2017-10-25T21:46:15.750Z,92.07
2017-10-25T21:47:21.898Z,92.40
2017-10-25T21:48:27.998Z,92.35
2017-10-25T21:49:34.081Z,92.40
2017-10-25T21:50:40.205Z,91.82
2017-10-25T21:51:46.256Z,91.82
2017-10-25T21:52:52.339Z,91.67
2017-10-25T21:53:58.444Z,91.53
2017-10-25T21:55:04.548Z,91.89
2017-10-25T21:56:10.629Z,92.09
2017-10-25T21:57:16.686Z,92.12
2017-10-25T21:58:22.414Z,92.02
2017-10-25T21:59:28.519Z,92.00
2017-10-25T22:00:34.611Z,92.32
2017-10-25T22:01:40.115Z,92.12
2017-10-25T22:02:46.079Z,92.18
2017-10-25T22:03:52.183Z,92.08
2017-10-25T22:04:58.294Z,92.54
2017-10-25T22:06:04.412Z,92.48
2017-10-25T22:07:10.485Z,92.20
2017-10-25T22:08:16.616Z,92.05
2017-10-25T22:09:22.729Z,92.34
2017-10-25T22:10:28.838Z,92.22
2017-10-25T22:11:34.952Z,92.26
2017-10-25T22:12:41.202Z,91.78
2017-10-25T22:13:47.407Z,91.79
2017-10-25T22:14:53.562Z,91.61
2017-10-25T22:15:59.727Z,91.77
2017-10-25T22:17:05.840Z,92.26
2017-10-25T22:18:11.918Z,91.88
2017-10-25T22:19:18.071Z,92.15
2017-10-25T22:20:24.973Z,91.77
2017-10-25T22:21:31.494Z,91.96
2017-10-25T22:22:37.650Z,92.20
2017-10-25T22:23:43.564Z,92.26
2017-10-25T22:24:49.698Z,92.42
2017-10-25T22:25:55.894Z,92.43
2017-10-25T22:27:02.014Z,92.58
2017-10-25T22:28:08.224Z,92.89
2017-10-25T22:29:14.324Z,93.41
2017-10-25T22:30:20.406Z,93.26
2017-10-25T22:31:26.484Z,93.39
2017-10-25T22:32:32.564Z,93.51
2017-10-25T22:33:38.727Z,93.00
2017-10-25T22:34:44.906Z,93.07
2017-10-25T22:35:51.094Z,93.03
2017-10-25T22:36:57.151Z,92.96
2017-10-25T22:38:03.231Z,92.68
2017-10-25T22:39:09.305Z,92.42
2017-10-25T22:40:15.203Z,92.68
2017-10-25T22:41:21.298Z,92.32
2017-10-25T22:42:27.457Z,92.76
2017-10-25T22:43:34.207Z,92.76
2017-10-25T22:44:40.357Z,93.13
2017-10-25T22:45:46.468Z,92.76
2017-10-25T22:46:52.707Z,92.45
2017-10-25T22:47:58.836Z,92.21
2017-10-25T22:49:04.994Z,92.39
2017-10-25T22:50:11.105Z,92.29
2017-10-25T22:51:16.839Z,92.85
2017-10-25T22:52:22.854Z,92.92
2017-10-25T22:53:29.212Z,93.38
2017-10-25T22:54:35.346Z,93.17
2017-10-25T22:55:41.554Z,92.87
2017-10-25T22:56:47.809Z,92.90
2017-10-25T22:57:53.907Z,92.58
2017-10-25T22:59:00.089Z,92.66
2017-10-25T23:00:06.017Z,92.80
2017-10-25T23:01:14.220Z,92.65
2017-10-25T23:02:20.144Z,92.91
2017-10-25T23:03:26.113Z,92.70
2017-10-25T23:04:32.190Z,92.94
2017-10-25T23:05:38.337Z,93.56
2017-10-25T23:06:44.383Z,93.70
2017-10-25T23:07:50.478Z,93.69
2017-10-25T23:08:56.688Z,93.45
2017-10-25T23:10:02.588Z,93.27
2017-10-25T23:11:08.697Z,93.21
2017-10-25T23:12:14.880Z,92.97
2017-10-25T23:13:21.006Z,92.98
2017-10-25T23:14:27.096Z,92.85
2017-10-25T23:15:33.225Z,92.44
2017-10-25T23:16:39.433Z,92.37
2017-10-25T23:17:45.568Z,92.35
2017-10-25T23:18:51.731Z,92.23
2017-10-25T23:19:57.836Z,92.35
2017-10-25T23:21:03.975Z,92.61
2017-10-25T23:22:10.056Z,92.84
2017-10-25T23:23:16.033Z,93.17
2017-10-25T23:24:22.144Z,93.04
2017-10-25T23:25:28.227Z,93.32
2017-10-25T23:26:34.371Z,93.41
2017-10-25T23:27:40.570Z,94.04
2017-10-25T23:28:46.512Z,94.12
2017-10-25T23:29:52.727Z,94.38
2017-10-25T23:30:58.500Z,94.71
2017-10-25T23:32:04.586Z,94.89
2017-10-25T23:33:10.510Z,95.29
2017-10-25T23:34:16.571Z,94.83
2017-10-25T23:35:22.728Z,94.65
2017-10-25T23:36:28.826Z,94.71
2017-10-25T23:37:34.929Z,94.85
2017-10-25T23:38:41.920Z,94.64
2017-10-25T23:39:48.969Z,94.77
2017-10-25T23:40:55.079Z,94.68
2017-10-25T23:42:01.876Z,94.86
2017-10-25T23:43:08.036Z,94.89
2017-10-25T23:44:14.120Z,95.22
2017-10-25T23:45:20.218Z,95.43
2017-10-25T23:46:26.302Z,95.30
2017-10-25T23:47:32.390Z,95.09
2017-10-25T23:48:39.937Z,95.18
2017-10-25T23:49:46.052Z,95.16
2017-10-25T23:50:54.064Z,94.84
2017-10-25T23:52:00.223Z,95.02
2017-10-25T23:53:06.384Z,95.24
2017-10-25T23:54:12.510Z,95.22
2017-10-25T23:55:18.669Z,95.24
2017-10-25T23:56:24.806Z,95.54
2017-10-25T23:57:30.750Z,95.73
2017-10-25T23:58:36.877Z,95.73
2017-10-25T23:59:42.818Z,95.61
